sensor_id;sensor_type;location;lat;lon;timestamp;P1;durP1;ratioP1;P2;durP2;ratioP2
36787;SDS011;22738;45.560;9.434;2022-12-29T00:03:53;104.88;;;41.00;;
36787;SDS011;22738;45.560;9.434;2022-12-29T00:10:34;101.50;;;39.13;;
36787;SDS011;22738;45.560;9.434;2022-12-29T00:17:15;102.20;;;40.15;;
36787;SDS011;22738;45.560;9.434;2022-12-29T00:23:56;100.10;;;39.13;;
36787;SDS011;22738;45.560;9.434;2022-12-29T00:30:59;95.70;;;42.08;;
36787;SDS011;22738;45.560;9.434;2022-12-29T00:38:02;103.97;;;42.43;;
36787;SDS011;22738;45.560;9.434;2022-12-29T00:45:04;101.65;;;38.88;;
36787;SDS011;22738;45.560;9.434;2022-12-29T00:51:46;96.35;;;40.03;;
36787;SDS011;22738;45.560;9.434;2022-12-29T00:58:29;103.15;;;41.00;;
36787;SDS011;22738;45.560;9.434;2022-12-29T01:05:11;98.35;;;39.70;;
36787;SDS011;22738;45.560;9.434;2022-12-29T01:11:52;103.47;;;40.28;;
36787;SDS011;22738;45.560;9.434;2022-12-29T01:18:33;104.70;;;40.22;;
36787;SDS011;22738;45.560;9.434;2022-12-29T01:25:14;109.95;;;41.45;;
36787;SDS011;22738;45.560;9.434;2022-12-29T01:31:55;107.47;;;42.00;;
36787;SDS011;22738;45.560;9.434;2022-12-29T01:38:37;100.40;;;40.85;;
36787;SDS011;22738;45.560;9.434;2022-12-29T01:45:20;105.28;;;40.20;;
36787;SDS011;22738;45.560;9.434;2022-12-29T01:52:04;105.73;;;41.50;;
36787;SDS011;22738;45.560;9.434;2022-12-29T01:58:48;118.10;;;44.42;;
36787;SDS011;22738;45.560;9.434;2022-12-29T02:12:26;108.88;;;44.42;;
36787;SDS011;22738;45.560;9.434;2022-12-29T02:26:13;111.43;;;42.58;;
36787;SDS011;22738;45.560;9.434;2022-12-29T02:33:10;121.10;;;45.75;;
36787;SDS011;22738;45.560;9.434;2022-12-29T02:53:40;104.93;;;40.33;;
36787;SDS011;22738;45.560;9.434;2022-12-29T03:00:48;107.97;;;43.08;;
36787;SDS011;22738;45.560;9.434;2022-12-29T03:15:03;93.40;;;36.50;;
36787;SDS011;22738;45.560;9.434;2022-12-29T03:22:17;90.45;;;37.10;;
36787;SDS011;22738;45.560;9.434;2022-12-29T03:29:19;103.35;;;41.03;;
36787;SDS011;22738;45.560;9.434;2022-12-29T03:36:03;116.67;;;41.63;;
36787;SDS011;22738;45.560;9.434;2022-12-29T03:42:48;102.13;;;40.60;;
36787;SDS011;22738;45.560;9.434;2022-12-29T03:49:29;88.75;;;36.45;;
36787;SDS011;22738;45.560;9.434;2022-12-29T03:56:11;98.70;;;39.35;;
36787;SDS011;22738;45.560;9.434;2022-12-29T04:02:52;113.03;;;43.00;;
36787;SDS011;22738;45.560;9.434;2022-12-29T04:09:37;95.40;;;37.67;;
36787;SDS011;22738;45.560;9.434;2022-12-29T04:16:19;108.75;;;39.45;;
36787;SDS011;22738;45.560;9.434;2022-12-29T04:23:00;110.95;;;42.25;;
36787;SDS011;22738;45.560;9.434;2022-12-29T04:29:43;112.63;;;41.20;;
36787;SDS011;22738;45.560;9.434;2022-12-29T04:36:44;105.00;;;38.22;;
36787;SDS011;22738;45.560;9.434;2022-12-29T04:43:26;89.80;;;36.72;;
36787;SDS011;22738;45.560;9.434;2022-12-29T04:50:26;98.47;;;37.65;;
36787;SDS011;22738;45.560;9.434;2022-12-29T04:57:30;112.03;;;40.45;;
36787;SDS011;22738;45.560;9.434;2022-12-29T05:10:58;95.15;;;39.25;;
36787;SDS011;22738;45.560;9.434;2022-12-29T05:17:39;97.07;;;37.42;;
36787;SDS011;22738;45.560;9.434;2022-12-29T05:24:23;90.28;;;36.92;;
36787;SDS011;22738;45.560;9.434;2022-12-29T05:31:08;94.03;;;36.75;;
36787;SDS011;22738;45.560;9.434;2022-12-29T05:37:49;91.10;;;36.33;;
36787;SDS011;22738;45.560;9.434;2022-12-29T05:44:30;99.93;;;39.83;;
36787;SDS011;22738;45.560;9.434;2022-12-29T05:51:32;101.32;;;40.88;;
36787;SDS011;22738;45.560;9.434;2022-12-29T05:58:14;102.45;;;39.25;;
36787;SDS011;22738;45.560;9.434;2022-12-29T06:04:56;118.00;;;43.47;;
36787;SDS011;22738;45.560;9.434;2022-12-29T06:11:37;95.38;;;36.60;;
36787;SDS011;22738;45.560;9.434;2022-12-29T06:18:18;84.63;;;36.28;;
36787;SDS011;22738;45.560;9.434;2022-12-29T06:25:00;91.18;;;38.80;;
36787;SDS011;22738;45.560;9.434;2022-12-29T06:31:46;107.07;;;39.93;;
36787;SDS011;22738;45.560;9.434;2022-12-29T06:38:27;95.75;;;36.33;;
36787;SDS011;22738;45.560;9.434;2022-12-29T06:45:09;101.80;;;40.30;;
36787;SDS011;22738;45.560;9.434;2022-12-29T06:51:50;122.00;;;45.25;;
36787;SDS011;22738;45.560;9.434;2022-12-29T06:58:31;107.53;;;41.53;;
36787;SDS011;22738;45.560;9.434;2022-12-29T07:05:12;110.20;;;40.80;;
36787;SDS011;22738;45.560;9.434;2022-12-29T07:11:54;115.60;;;45.15;;
36787;SDS011;22738;45.560;9.434;2022-12-29T07:18:35;107.22;;;42.08;;
36787;SDS011;22738;45.560;9.434;2022-12-29T07:25:16;117.18;;;44.83;;
36787;SDS011;22738;45.560;9.434;2022-12-29T07:31:57;110.95;;;43.95;;
36787;SDS011;22738;45.560;9.434;2022-12-29T07:38:39;107.45;;;42.80;;
36787;SDS011;22738;45.560;9.434;2022-12-29T07:45:20;107.55;;;42.50;;
36787;SDS011;22738;45.560;9.434;2022-12-29T07:52:02;107.00;;;43.90;;
36787;SDS011;22738;45.560;9.434;2022-12-29T07:58:43;109.10;;;44.22;;
36787;SDS011;22738;45.560;9.434;2022-12-29T08:05:25;121.13;;;46.22;;
36787;SDS011;22738;45.560;9.434;2022-12-29T08:12:07;109.18;;;42.30;;
36787;SDS011;22738;45.560;9.434;2022-12-29T08:18:52;105.10;;;40.95;;
36787;SDS011;22738;45.560;9.434;2022-12-29T08:25:36;88.97;;;38.38;;
36787;SDS011;22738;45.560;9.434;2022-12-29T08:32:17;96.13;;;42.38;;
36787;SDS011;22738;45.560;9.434;2022-12-29T08:38:58;98.18;;;39.97;;
36787;SDS011;22738;45.560;9.434;2022-12-29T08:45:40;94.75;;;38.97;;
36787;SDS011;22738;45.560;9.434;2022-12-29T08:52:24;94.38;;;40.50;;
36787;SDS011;22738;45.560;9.434;2022-12-29T08:59:09;94.93;;;39.83;;
36787;SDS011;22738;45.560;9.434;2022-12-29T09:05:52;90.22;;;37.10;;
36787;SDS011;22738;45.560;9.434;2022-12-29T09:12:37;98.70;;;42.47;;
36787;SDS011;22738;45.560;9.434;2022-12-29T09:19:18;128.30;;;44.92;;
36787;SDS011;22738;45.560;9.434;2022-12-29T09:25:59;106.32;;;42.58;;
36787;SDS011;22738;45.560;9.434;2022-12-29T09:32:40;97.22;;;41.50;;
36787;SDS011;22738;45.560;9.434;2022-12-29T09:39:24;93.28;;;38.58;;
36787;SDS011;22738;45.560;9.434;2022-12-29T09:53:21;100.50;;;39.50;;
36787;SDS011;22738;45.560;9.434;2022-12-29T10:00:28;95.28;;;39.03;;
36787;SDS011;22738;45.560;9.434;2022-12-29T10:28:58;84.05;;;37.08;;
36787;SDS011;22738;45.560;9.434;2022-12-29T10:36:18;80.60;;;36.28;;
36787;SDS011;22738;45.560;9.434;2022-12-29T10:43:46;82.85;;;37.22;;
36787;SDS011;22738;45.560;9.434;2022-12-29T10:50:31;87.78;;;37.75;;
36787;SDS011;22738;45.560;9.434;2022-12-29T10:57:26;90.22;;;39.00;;
36787;SDS011;22738;45.560;9.434;2022-12-29T11:04:29;81.05;;;35.85;;
36787;SDS011;22738;45.560;9.434;2022-12-29T11:11:24;85.13;;;36.45;;
36787;SDS011;22738;45.560;9.434;2022-12-29T11:18:32;83.80;;;37.20;;
36787;SDS011;22738;45.560;9.434;2022-12-29T11:25:20;91.07;;;38.73;;
36787;SDS011;22738;45.560;9.434;2022-12-29T11:32:04;84.65;;;35.90;;
36787;SDS011;22738;45.560;9.434;2022-12-29T11:38:52;92.65;;;39.90;;
36787;SDS011;22738;45.560;9.434;2022-12-29T11:45:35;94.82;;;41.00;;
36787;SDS011;22738;45.560;9.434;2022-12-29T11:52:23;102.70;;;44.38;;
36787;SDS011;22738;45.560;9.434;2022-12-29T12:06:42;122.13;;;49.58;;
36787;SDS011;22738;45.560;9.434;2022-12-29T12:20:43;129.55;;;51.25;;
36787;SDS011;22738;45.560;9.434;2022-12-29T12:27:29;120.80;;;48.63;;
36787;SDS011;22738;45.560;9.434;2022-12-29T12:34:30;138.77;;;52.63;;
36787;SDS011;22738;45.560;9.434;2022-12-29T13:01:50;143.55;;;52.20;;
36787;SDS011;22738;45.560;9.434;2022-12-29T13:09:20;134.00;;;54.45;;
36787;SDS011;22738;45.560;9.434;2022-12-29T13:30:30;127.22;;;47.25;;
36787;SDS011;22738;45.560;9.434;2022-12-29T13:37:18;119.90;;;50.17;;
36787;SDS011;22738;45.560;9.434;2022-12-29T13:44:04;118.18;;;48.95;;
36787;SDS011;22738;45.560;9.434;2022-12-29T13:50:48;121.50;;;47.83;;
36787;SDS011;22738;45.560;9.434;2022-12-29T13:57:40;134.35;;;51.83;;
36787;SDS011;22738;45.560;9.434;2022-12-29T14:04:31;122.07;;;51.17;;
36787;SDS011;22738;45.560;9.434;2022-12-29T14:11:16;131.93;;;52.20;;
36787;SDS011;22738;45.560;9.434;2022-12-29T14:24:46;125.90;;;51.85;;
36787;SDS011;22738;45.560;9.434;2022-12-29T14:38:18;137.35;;;52.80;;
36787;SDS011;22738;45.560;9.434;2022-12-29T14:45:03;135.68;;;53.55;;
36787;SDS011;22738;45.560;9.434;2022-12-29T14:51:50;143.30;;;52.50;;
36787;SDS011;22738;45.560;9.434;2022-12-29T14:58:54;132.60;;;52.88;;
36787;SDS011;22738;45.560;9.434;2022-12-29T15:12:43;137.77;;;53.83;;
36787;SDS011;22738;45.560;9.434;2022-12-29T15:19:32;132.23;;;51.28;;
36787;SDS011;22738;45.560;9.434;2022-12-29T15:26:13;130.13;;;50.33;;
36787;SDS011;22738;45.560;9.434;2022-12-29T15:33:08;134.05;;;48.90;;
36787;SDS011;22738;45.560;9.434;2022-12-29T15:40:02;121.25;;;46.45;;
36787;SDS011;22738;45.560;9.434;2022-12-29T15:46:44;120.97;;;46.20;;
36787;SDS011;22738;45.560;9.434;2022-12-29T15:53:30;131.00;;;47.67;;
36787;SDS011;22738;45.560;9.434;2022-12-29T16:00:23;108.13;;;45.17;;
36787;SDS011;22738;45.560;9.434;2022-12-29T16:07:22;110.55;;;45.10;;
36787;SDS011;22738;45.560;9.434;2022-12-29T16:14:07;110.45;;;44.92;;
36787;SDS011;22738;45.560;9.434;2022-12-29T16:21:02;109.13;;;44.58;;
36787;SDS011;22738;45.560;9.434;2022-12-29T16:27:48;117.20;;;43.85;;
36787;SDS011;22738;45.560;9.434;2022-12-29T16:34:31;108.70;;;44.40;;
36787;SDS011;22738;45.560;9.434;2022-12-29T16:41:30;121.05;;;48.58;;
36787;SDS011;22738;45.560;9.434;2022-12-29T16:54:54;116.57;;;45.80;;
36787;SDS011;22738;45.560;9.434;2022-12-29T17:01:38;114.32;;;48.35;;
36787;SDS011;22738;45.560;9.434;2022-12-29T17:08:20;135.50;;;50.05;;
36787;SDS011;22738;45.560;9.434;2022-12-29T17:15:04;148.43;;;53.58;;
36787;SDS011;22738;45.560;9.434;2022-12-29T17:21:50;127.28;;;48.55;;
36787;SDS011;22738;45.560;9.434;2022-12-29T17:28:31;139.00;;;51.75;;
36787;SDS011;22738;45.560;9.434;2022-12-29T17:35:13;120.45;;;48.20;;
36787;SDS011;22738;45.560;9.434;2022-12-29T17:41:58;134.18;;;50.63;;
36787;SDS011;22738;45.560;9.434;2022-12-29T17:48:39;134.85;;;50.65;;
36787;SDS011;22738;45.560;9.434;2022-12-29T17:55:21;135.80;;;52.40;;
36787;SDS011;22738;45.560;9.434;2022-12-29T18:02:08;132.73;;;49.80;;
36787;SDS011;22738;45.560;9.434;2022-12-29T18:09:15;141.52;;;51.38;;
36787;SDS011;22738;45.560;9.434;2022-12-29T18:15:58;139.95;;;53.65;;
36787;SDS011;22738;45.560;9.434;2022-12-29T18:22:41;134.25;;;50.13;;
36787;SDS011;22738;45.560;9.434;2022-12-29T18:29:23;128.15;;;51.20;;
36787;SDS011;22738;45.560;9.434;2022-12-29T18:36:04;135.45;;;48.95;;
36787;SDS011;22738;45.560;9.434;2022-12-29T18:42:46;128.20;;;51.63;;
36787;SDS011;22738;45.560;9.434;2022-12-29T18:49:27;128.52;;;49.10;;
36787;SDS011;22738;45.560;9.434;2022-12-29T18:56:09;117.40;;;48.60;;
36787;SDS011;22738;45.560;9.434;2022-12-29T19:02:50;111.50;;;47.40;;
36787;SDS011;22738;45.560;9.434;2022-12-29T19:09:32;132.03;;;51.27;;
36787;SDS011;22738;45.560;9.434;2022-12-29T19:16:18;127.15;;;46.50;;
36787;SDS011;22738;45.560;9.434;2022-12-29T19:23:02;122.95;;;47.95;;
36787;SDS011;22738;45.560;9.434;2022-12-29T19:29:45;134.23;;;50.22;;
36787;SDS011;22738;45.560;9.434;2022-12-29T19:36:26;135.80;;;50.28;;
36787;SDS011;22738;45.560;9.434;2022-12-29T19:43:10;112.30;;;47.05;;
36787;SDS011;22738;45.560;9.434;2022-12-29T19:49:52;125.57;;;47.63;;
36787;SDS011;22738;45.560;9.434;2022-12-29T19:56:33;114.78;;;46.25;;
36787;SDS011;22738;45.560;9.434;2022-12-29T20:03:14;117.65;;;46.90;;
36787;SDS011;22738;45.560;9.434;2022-12-29T20:09:55;135.35;;;48.35;;
36787;SDS011;22738;45.560;9.434;2022-12-29T20:16:36;119.93;;;47.03;;
36787;SDS011;22738;45.560;9.434;2022-12-29T20:23:18;126.15;;;49.25;;
36787;SDS011;22738;45.560;9.434;2022-12-29T20:30:04;129.88;;;48.17;;
36787;SDS011;22738;45.560;9.434;2022-12-29T20:36:47;114.07;;;45.30;;
36787;SDS011;22738;45.560;9.434;2022-12-29T20:43:28;118.65;;;44.53;;
36787;SDS011;22738;45.560;9.434;2022-12-29T20:50:10;138.25;;;50.60;;
36787;SDS011;22738;45.560;9.434;2022-12-29T20:56:54;122.60;;;46.78;;
36787;SDS011;22738;45.560;9.434;2022-12-29T21:03:36;126.45;;;46.25;;
36787;SDS011;22738;45.560;9.434;2022-12-29T21:10:19;120.97;;;44.10;;
36787;SDS011;22738;45.560;9.434;2022-12-29T21:17:06;111.32;;;40.08;;
36787;SDS011;22738;45.560;9.434;2022-12-29T21:23:49;124.63;;;42.13;;
36787;SDS011;22738;45.560;9.434;2022-12-29T21:30:37;121.68;;;43.28;;
36787;SDS011;22738;45.560;9.434;2022-12-29T21:37:23;118.32;;;42.10;;
36787;SDS011;22738;45.560;9.434;2022-12-29T21:44:06;119.90;;;43.83;;
36787;SDS011;22738;45.560;9.434;2022-12-29T21:51:12;117.28;;;38.47;;
36787;SDS011;22738;45.560;9.434;2022-12-29T21:58:12;105.00;;;36.88;;
36787;SDS011;22738;45.560;9.434;2022-12-29T22:05:12;81.40;;;33.58;;
36787;SDS011;22738;45.560;9.434;2022-12-29T22:12:13;70.70;;;30.25;;
36787;SDS011;22738;45.560;9.434;2022-12-29T22:19:12;68.13;;;30.55;;
36787;SDS011;22738;45.560;9.434;2022-12-29T22:25:55;69.87;;;28.83;;
36787;SDS011;22738;45.560;9.434;2022-12-29T22:32:37;61.70;;;26.23;;
36787;SDS011;22738;45.560;9.434;2022-12-29T22:39:20;60.43;;;27.67;;
36787;SDS011;22738;45.560;9.434;2022-12-29T22:46:02;69.35;;;28.45;;
36787;SDS011;22738;45.560;9.434;2022-12-29T22:52:44;65.85;;;27.10;;
36787;SDS011;22738;45.560;9.434;2022-12-29T22:59:25;54.78;;;23.98;;
36787;SDS011;22738;45.560;9.434;2022-12-29T23:06:07;54.13;;;24.20;;
36787;SDS011;22738;45.560;9.434;2022-12-29T23:12:50;54.90;;;25.42;;
36787;SDS011;22738;45.560;9.434;2022-12-29T23:19:31;54.90;;;24.88;;
36787;SDS011;22738;45.560;9.434;2022-12-29T23:26:12;47.55;;;23.25;;
36787;SDS011;22738;45.560;9.434;2022-12-29T23:32:53;50.97;;;23.23;;
36787;SDS011;22738;45.560;9.434;2022-12-29T23:39:34;53.88;;;23.30;;
36787;SDS011;22738;45.560;9.434;2022-12-29T23:46:17;57.20;;;23.02;;
36787;SDS011;22738;45.560;9.434;2022-12-29T23:52:59;55.35;;;24.00;;
36787;SDS011;22738;45.560;9.434;2022-12-29T23:59:40;52.10;;;23.35;;
